Thal Weather



Thal's Current Weather

Temprature -2.41o overcast clouds

overcast clouds

Rain: 0 %

Min Temprature-2.41o
Max Temprature-2.41o
Humidity52
Wind Speed1.02 m/h
Sun Rise06:44:45
Sun Set18:03:25
Current Time: 27-Feb-2020 00:30:51
Lat/Lon: 35.48, 72.24




Thal's Geo Location



Thal's Weather Forecast

Time Overall Temp Min Temp Max Temp Humidity Wind Speed Rain
27-Feb-2020 (Thu)
02:00:00 overcast clouds -2.410 -2.410 -2.410 52 1.02 m/h 0 %
05:00:00 overcast clouds -2.680 -2.680 -2.680 54 0.64 m/h 0 %
08:00:00 broken clouds -1.300 -1.300 -1.300 48 1.33 m/h 0 %
11:00:00 broken clouds 2.790 2.790 2.790 50 1.96 m/h 0 %
14:00:00 overcast clouds 3.650 3.650 3.650 49 1.81 m/h 0 %
17:00:00 overcast clouds 2.270 2.270 2.270 57 1.71 m/h 0 %
20:00:00 light snow -0.920 -0.920 -0.920 75 1.43 m/h 0 %
23:00:00 light snow -2.440 -2.440 -2.440 78 2.03 m/h 0 %
28-Feb-2020 (Fri)
02:00:00 snow -3.570 -3.570 -3.570 95 1.65 m/h 0 %
05:00:00 snow -3.160 -3.160 -3.160 94 2.02 m/h 0 %
08:00:00 snow -2.720 -2.720 -2.720 95 2.03 m/h 0 %
11:00:00 snow -1.760 -1.760 -1.760 99 2.7 m/h 0 %
14:00:00 snow -0.250 -0.250 -0.250 94 1.51 m/h 0 %
17:00:00 light snow -0.270 -0.270 -0.270 88 0.72 m/h 0 %
20:00:00 overcast clouds -2.500 -2.500 -2.500 80 1.87 m/h 0 %
23:00:00 light snow -3.850 -3.850 -3.850 90 1.03 m/h 0 %
29-Feb-2020 (Sat)
02:00:00 snow -2.900 -2.900 -2.900 89 2.42 m/h 0 %
05:00:00 light snow -4.850 -4.850 -4.850 84 1.01 m/h 0 %
08:00:00 light snow -2.470 -2.470 -2.470 84 1.22 m/h 0 %
11:00:00 light snow -0.590 -0.590 -0.590 90 0.94 m/h 0 %
14:00:00 light snow -0.270 -0.270 -0.270 99 2.21 m/h 0 %
17:00:00 light snow -1.010 -1.010 -1.010 98 1.33 m/h 0 %
20:00:00 snow -2.150 -2.150 -2.150 98 0.79 m/h 0 %
23:00:00 light snow -3.890 -3.890 -3.890 91 1.65 m/h 0 %
01-Mar-2020 (Sun)
02:00:00 overcast clouds -4.920 -4.920 -4.920 87 2.05 m/h 0 %
05:00:00 overcast clouds -5.470 -5.470 -5.470 83 2.43 m/h 0 %
08:00:00 overcast clouds -3.370 -3.370 -3.370 80 1.97 m/h 0 %
11:00:00 broken clouds 0.310 0.310 0.310 83 0.57 m/h 0 %
14:00:00 light snow 1.090 1.090 1.090 85 1.5 m/h 0 %
17:00:00 light snow 0.270 0.270 0.270 87 0.84 m/h 0 %
20:00:00 few clouds -3.910 -3.910 -3.910 81 2.04 m/h 0 %
23:00:00 few clouds -4.650 -4.650 -4.650 69 2.65 m/h 0 %
02-Mar-2020 (Mon)
02:00:00 clear sky -4.980 -4.980 -4.980 69 2.52 m/h 0 %
05:00:00 few clouds -5.330 -5.330 -5.330 69 2.65 m/h 0 %
08:00:00 overcast clouds -3.060 -3.060 -3.060 68 1.9 m/h 0 %
11:00:00 overcast clouds 1.070 1.070 1.070 65 0.63 m/h 0 %
14:00:00 broken clouds 2.090 2.090 2.090 64 1.92 m/h 0 %
17:00:00 light snow 0.750 0.750 0.750 77 1.14 m/h 0 %
20:00:00 light snow -2.720 -2.720 -2.720 83 1.85 m/h 0 %
23:00:00 broken clouds -3.810 -3.810 -3.810 78 2.25 m/h 0 %

Famous Cities (61)